sensor_id;sensor_type;location;lat;lon;timestamp;P1;durP1;ratioP1;P2;durP2;ratioP2
70683;SDS011;58263;48.146;11.440;2023-04-09T00:00:35;14.70;;;8.75;;
70683;SDS011;58263;48.146;11.440;2023-04-09T00:03:01;13.20;;;8.23;;
70683;SDS011;58263;48.146;11.440;2023-04-09T00:05:26;14.10;;;9.10;;
70683;SDS011;58263;48.146;11.440;2023-04-09T00:07:52;13.70;;;9.88;;
70683;SDS011;58263;48.146;11.440;2023-04-09T00:10:17;13.80;;;8.40;;
70683;SDS011;58263;48.146;11.440;2023-04-09T00:12:43;13.90;;;9.15;;
70683;SDS011;58263;48.146;11.440;2023-04-09T00:15:08;13.90;;;9.53;;
70683;SDS011;58263;48.146;11.440;2023-04-09T00:17:34;13.63;;;8.50;;
70683;SDS011;58263;48.146;11.440;2023-04-09T00:19:59;13.35;;;8.57;;
70683;SDS011;58263;48.146;11.440;2023-04-09T00:22:25;13.00;;;9.13;;
70683;SDS011;58263;48.146;11.440;2023-04-09T00:24:50;13.70;;;9.40;;
70683;SDS011;58263;48.146;11.440;2023-04-09T00:27:15;16.07;;;9.50;;
70683;SDS011;58263;48.146;11.440;2023-04-09T00:29:41;12.43;;;8.80;;
70683;SDS011;58263;48.146;11.440;2023-04-09T00:32:06;13.73;;;9.25;;
70683;SDS011;58263;48.146;11.440;2023-04-09T00:34:31;10.57;;;7.83;;
70683;SDS011;58263;48.146;11.440;2023-04-09T00:36:57;12.50;;;8.63;;
70683;SDS011;58263;48.146;11.440;2023-04-09T00:39:22;13.23;;;8.73;;
70683;SDS011;58263;48.146;11.440;2023-04-09T00:41:47;11.93;;;7.83;;
70683;SDS011;58263;48.146;11.440;2023-04-09T00:44:13;16.57;;;9.57;;
70683;SDS011;58263;48.146;11.440;2023-04-09T00:46:38;12.57;;;8.13;;
70683;SDS011;58263;48.146;11.440;2023-04-09T00:49:03;14.70;;;10.00;;
70683;SDS011;58263;48.146;11.440;2023-04-09T00:51:30;13.80;;;8.80;;
70683;SDS011;58263;48.146;11.440;2023-04-09T00:53:55;13.38;;;8.77;;
70683;SDS011;58263;48.146;11.440;2023-04-09T00:56:21;13.43;;;8.38;;
70683;SDS011;58263;48.146;11.440;2023-04-09T00:58:47;14.00;;;8.75;;
70683;SDS011;58263;48.146;11.440;2023-04-09T01:01:13;13.88;;;8.90;;
70683;SDS011;58263;48.146;11.440;2023-04-09T01:03:38;16.48;;;9.80;;
70683;SDS011;58263;48.146;11.440;2023-04-09T01:06:06;15.82;;;9.90;;
70683;SDS011;58263;48.146;11.440;2023-04-09T01:11:37;13.80;;;7.63;;
70683;SDS011;58263;48.146;11.440;2023-04-09T01:14:11;12.82;;;7.80;;
70683;SDS011;58263;48.146;11.440;2023-04-09T01:16:45;12.18;;;7.55;;
70683;SDS011;58263;48.146;11.440;2023-04-09T01:25:03;10.98;;;7.15;;
70683;SDS011;58263;48.146;11.440;2023-04-09T01:30:34;11.25;;;7.90;;
70683;SDS011;58263;48.146;11.440;2023-04-09T01:33:00;13.13;;;7.20;;
70683;SDS011;58263;48.146;11.440;2023-04-09T01:35:27;11.75;;;7.97;;
70683;SDS011;58263;48.146;11.440;2023-04-09T01:37:53;12.45;;;7.57;;
70683;SDS011;58263;48.146;11.440;2023-04-09T01:40:20;15.27;;;9.55;;
70683;SDS011;58263;48.146;11.440;2023-04-09T01:42:46;14.07;;;8.60;;
70683;SDS011;58263;48.146;11.440;2023-04-09T01:45:13;13.80;;;8.07;;
70683;SDS011;58263;48.146;11.440;2023-04-09T01:47:40;12.93;;;8.30;;
70683;SDS011;58263;48.146;11.440;2023-04-09T01:50:05;12.77;;;7.70;;
70683;SDS011;58263;48.146;11.440;2023-04-09T01:52:32;13.55;;;8.50;;
70683;SDS011;58263;48.146;11.440;2023-04-09T01:54:57;14.13;;;9.48;;
70683;SDS011;58263;48.146;11.440;2023-04-09T01:57:23;12.83;;;8.40;;
70683;SDS011;58263;48.146;11.440;2023-04-09T01:59:48;14.13;;;8.85;;
70683;SDS011;58263;48.146;11.440;2023-04-09T02:02:17;15.37;;;9.43;;
70683;SDS011;58263;48.146;11.440;2023-04-09T02:04:49;13.70;;;9.27;;
70683;SDS011;58263;48.146;11.440;2023-04-09T02:09:53;15.63;;;9.93;;
70683;SDS011;58263;48.146;11.440;2023-04-09T02:12:19;14.90;;;9.35;;
70683;SDS011;58263;48.146;11.440;2023-04-09T02:14:45;17.98;;;10.40;;
70683;SDS011;58263;48.146;11.440;2023-04-09T02:17:15;17.48;;;10.18;;
70683;SDS011;58263;48.146;11.440;2023-04-09T02:19:44;15.68;;;9.57;;
70683;SDS011;58263;48.146;11.440;2023-04-09T02:22:11;13.23;;;9.10;;
70683;SDS011;58263;48.146;11.440;2023-04-09T02:24:37;16.50;;;9.23;;
70683;SDS011;58263;48.146;11.440;2023-04-09T02:27:02;13.30;;;8.85;;
70683;SDS011;58263;48.146;11.440;2023-04-09T02:29:29;17.13;;;9.00;;
70683;SDS011;58263;48.146;11.440;2023-04-09T02:31:54;16.23;;;10.35;;
70683;SDS011;58263;48.146;11.440;2023-04-09T02:34:20;14.75;;;9.18;;
70683;SDS011;58263;48.146;11.440;2023-04-09T02:36:45;15.32;;;8.88;;
70683;SDS011;58263;48.146;11.440;2023-04-09T02:39:10;16.83;;;10.53;;
70683;SDS011;58263;48.146;11.440;2023-04-09T02:41:36;18.93;;;9.77;;
70683;SDS011;58263;48.146;11.440;2023-04-09T02:44:01;18.37;;;11.43;;
70683;SDS011;58263;48.146;11.440;2023-04-09T02:46:26;19.40;;;11.00;;
70683;SDS011;58263;48.146;11.440;2023-04-09T02:48:52;17.20;;;10.43;;
70683;SDS011;58263;48.146;11.440;2023-04-09T02:51:17;13.70;;;9.33;;
70683;SDS011;58263;48.146;11.440;2023-04-09T02:53:42;15.07;;;9.47;;
70683;SDS011;58263;48.146;11.440;2023-04-09T02:56:09;15.90;;;10.05;;
70683;SDS011;58263;48.146;11.440;2023-04-09T02:58:35;18.92;;;10.65;;
70683;SDS011;58263;48.146;11.440;2023-04-09T03:01:00;16.13;;;10.50;;
70683;SDS011;58263;48.146;11.440;2023-04-09T03:03:25;17.08;;;10.98;;
70683;SDS011;58263;48.146;11.440;2023-04-09T03:05:51;17.85;;;10.32;;
70683;SDS011;58263;48.146;11.440;2023-04-09T03:08:16;15.73;;;11.23;;
70683;SDS011;58263;48.146;11.440;2023-04-09T03:10:41;15.20;;;11.20;;
70683;SDS011;58263;48.146;11.440;2023-04-09T03:13:07;14.88;;;9.27;;
70683;SDS011;58263;48.146;11.440;2023-04-09T03:15:32;16.17;;;9.73;;
70683;SDS011;58263;48.146;11.440;2023-04-09T03:17:57;16.70;;;11.03;;
70683;SDS011;58263;48.146;11.440;2023-04-09T03:20:22;16.47;;;10.87;;
70683;SDS011;58263;48.146;11.440;2023-04-09T03:22:48;24.00;;;14.07;;
70683;SDS011;58263;48.146;11.440;2023-04-09T03:25:13;27.00;;;14.60;;
70683;SDS011;58263;48.146;11.440;2023-04-09T03:27:38;20.92;;;11.45;;
70683;SDS011;58263;48.146;11.440;2023-04-09T03:30:04;16.43;;;10.97;;
70683;SDS011;58263;48.146;11.440;2023-04-09T03:32:30;19.75;;;10.38;;
70683;SDS011;58263;48.146;11.440;2023-04-09T03:34:55;14.87;;;10.07;;
70683;SDS011;58263;48.146;11.440;2023-04-09T03:37:20;16.73;;;10.77;;
70683;SDS011;58263;48.146;11.440;2023-04-09T03:39:45;15.73;;;10.70;;
70683;SDS011;58263;48.146;11.440;2023-04-09T03:42:11;17.13;;;9.53;;
70683;SDS011;58263;48.146;11.440;2023-04-09T03:44:36;15.87;;;9.33;;
70683;SDS011;58263;48.146;11.440;2023-04-09T03:47:01;14.00;;;9.67;;
70683;SDS011;58263;48.146;11.440;2023-04-09T03:49:27;14.00;;;9.85;;
70683;SDS011;58263;48.146;11.440;2023-04-09T03:51:52;13.20;;;9.25;;
70683;SDS011;58263;48.146;11.440;2023-04-09T03:54:18;13.57;;;9.63;;
70683;SDS011;58263;48.146;11.440;2023-04-09T03:56:43;15.40;;;9.03;;
70683;SDS011;58263;48.146;11.440;2023-04-09T03:59:08;12.83;;;7.90;;
70683;SDS011;58263;48.146;11.440;2023-04-09T04:01:34;15.43;;;8.57;;
70683;SDS011;58263;48.146;11.440;2023-04-09T04:03:59;14.10;;;8.47;;
70683;SDS011;58263;48.146;11.440;2023-04-09T04:06:24;12.27;;;8.20;;
70683;SDS011;58263;48.146;11.440;2023-04-09T04:08:51;13.13;;;7.80;;
70683;SDS011;58263;48.146;11.440;2023-04-09T04:11:16;13.77;;;9.30;;
70683;SDS011;58263;48.146;11.440;2023-04-09T04:13:41;13.17;;;7.00;;
70683;SDS011;58263;48.146;11.440;2023-04-09T04:16:07;14.33;;;8.63;;
70683;SDS011;58263;48.146;11.440;2023-04-09T04:18:33;12.20;;;7.88;;
70683;SDS011;58263;48.146;11.440;2023-04-09T04:20:59;15.20;;;9.32;;
70683;SDS011;58263;48.146;11.440;2023-04-09T04:23:24;15.30;;;9.88;;
70683;SDS011;58263;48.146;11.440;2023-04-09T04:25:50;13.67;;;9.20;;
70683;SDS011;58263;48.146;11.440;2023-04-09T04:28:16;13.55;;;8.23;;
70683;SDS011;58263;48.146;11.440;2023-04-09T04:30:42;14.57;;;8.88;;
70683;SDS011;58263;48.146;11.440;2023-04-09T04:33:07;14.93;;;8.17;;
70683;SDS011;58263;48.146;11.440;2023-04-09T04:35:32;16.53;;;9.17;;
70683;SDS011;58263;48.146;11.440;2023-04-09T04:37:58;17.23;;;9.27;;
70683;SDS011;58263;48.146;11.440;2023-04-09T04:40:23;14.27;;;8.17;;
70683;SDS011;58263;48.146;11.440;2023-04-09T04:42:48;13.48;;;8.23;;
70683;SDS011;58263;48.146;11.440;2023-04-09T04:45:14;12.90;;;7.83;;
70683;SDS011;58263;48.146;11.440;2023-04-09T04:47:39;13.38;;;8.15;;
70683;SDS011;58263;48.146;11.440;2023-04-09T04:50:05;10.93;;;8.70;;
70683;SDS011;58263;48.146;11.440;2023-04-09T04:52:31;12.55;;;8.00;;
70683;SDS011;58263;48.146;11.440;2023-04-09T04:54:56;15.30;;;9.00;;
70683;SDS011;58263;48.146;11.440;2023-04-09T04:57:21;11.57;;;8.50;;
70683;SDS011;58263;48.146;11.440;2023-04-09T04:59:47;13.23;;;8.60;;
70683;SDS011;58263;48.146;11.440;2023-04-09T05:02:12;13.38;;;8.07;;
70683;SDS011;58263;48.146;11.440;2023-04-09T05:04:37;11.37;;;7.50;;
70683;SDS011;58263;48.146;11.440;2023-04-09T05:07:02;15.13;;;9.90;;
70683;SDS011;58263;48.146;11.440;2023-04-09T05:09:28;13.63;;;9.37;;
70683;SDS011;58263;48.146;11.440;2023-04-09T05:11:53;12.97;;;8.60;;
70683;SDS011;58263;48.146;11.440;2023-04-09T05:14:18;15.32;;;9.25;;
70683;SDS011;58263;48.146;11.440;2023-04-09T05:16:45;14.85;;;8.52;;
70683;SDS011;58263;48.146;11.440;2023-04-09T05:19:11;13.35;;;9.05;;
70683;SDS011;58263;48.146;11.440;2023-04-09T05:21:36;17.53;;;9.77;;
70683;SDS011;58263;48.146;11.440;2023-04-09T05:24:01;15.13;;;9.43;;
70683;SDS011;58263;48.146;11.440;2023-04-09T05:26:27;13.02;;;8.40;;
70683;SDS011;58263;48.146;11.440;2023-04-09T05:28:52;16.83;;;9.38;;
70683;SDS011;58263;48.146;11.440;2023-04-09T05:31:18;15.35;;;8.70;;
70683;SDS011;58263;48.146;11.440;2023-04-09T05:33:43;14.93;;;7.78;;
70683;SDS011;58263;48.146;11.440;2023-04-09T05:36:13;12.37;;;8.07;;
70683;SDS011;58263;48.146;11.440;2023-04-09T05:38:43;9.55;;;7.03;;
70683;SDS011;58263;48.146;11.440;2023-04-09T05:41:10;11.93;;;7.22;;
70683;SDS011;58263;48.146;11.440;2023-04-09T05:43:35;13.13;;;7.70;;
70683;SDS011;58263;48.146;11.440;2023-04-09T05:46:01;11.25;;;6.65;;
70683;SDS011;58263;48.146;11.440;2023-04-09T05:48:26;13.13;;;7.77;;
70683;SDS011;58263;48.146;11.440;2023-04-09T05:50:51;12.18;;;7.13;;
70683;SDS011;58263;48.146;11.440;2023-04-09T05:53:17;11.55;;;7.07;;
70683;SDS011;58263;48.146;11.440;2023-04-09T05:55:44;13.27;;;7.85;;
70683;SDS011;58263;48.146;11.440;2023-04-09T05:58:10;13.38;;;7.78;;
70683;SDS011;58263;48.146;11.440;2023-04-09T06:00:35;13.65;;;8.43;;
70683;SDS011;58263;48.146;11.440;2023-04-09T06:03:01;11.50;;;7.45;;
70683;SDS011;58263;48.146;11.440;2023-04-09T06:05:26;15.10;;;9.10;;
70683;SDS011;58263;48.146;11.440;2023-04-09T06:07:52;14.73;;;8.90;;
70683;SDS011;58263;48.146;11.440;2023-04-09T06:10:17;12.90;;;8.70;;
70683;SDS011;58263;48.146;11.440;2023-04-09T06:12:43;12.73;;;7.78;;
70683;SDS011;58263;48.146;11.440;2023-04-09T06:15:08;13.07;;;8.10;;
70683;SDS011;58263;48.146;11.440;2023-04-09T06:17:34;13.50;;;8.43;;
70683;SDS011;58263;48.146;11.440;2023-04-09T06:19:59;13.17;;;8.43;;
70683;SDS011;58263;48.146;11.440;2023-04-09T06:22:24;12.77;;;8.03;;
70683;SDS011;58263;48.146;11.440;2023-04-09T06:24:50;13.83;;;8.50;;
70683;SDS011;58263;48.146;11.440;2023-04-09T06:27:15;11.73;;;7.47;;
70683;SDS011;58263;48.146;11.440;2023-04-09T06:29:42;15.90;;;8.75;;
70683;SDS011;58263;48.146;11.440;2023-04-09T06:32:08;12.50;;;7.97;;
70683;SDS011;58263;48.146;11.440;2023-04-09T06:34:34;14.63;;;8.45;;
70683;SDS011;58263;48.146;11.440;2023-04-09T06:36:59;12.73;;;7.88;;
70683;SDS011;58263;48.146;11.440;2023-04-09T06:39:24;13.73;;;7.97;;
70683;SDS011;58263;48.146;11.440;2023-04-09T06:41:50;13.10;;;8.27;;
70683;SDS011;58263;48.146;11.440;2023-04-09T06:44:15;14.67;;;7.93;;
70683;SDS011;58263;48.146;11.440;2023-04-09T06:46:41;12.80;;;8.00;;
70683;SDS011;58263;48.146;11.440;2023-04-09T06:49:06;14.07;;;9.20;;
70683;SDS011;58263;48.146;11.440;2023-04-09T06:51:31;10.97;;;7.27;;
70683;SDS011;58263;48.146;11.440;2023-04-09T06:53:57;14.60;;;8.07;;
70683;SDS011;58263;48.146;11.440;2023-04-09T06:56:22;14.77;;;8.77;;
70683;SDS011;58263;48.146;11.440;2023-04-09T06:58:47;12.23;;;7.70;;
70683;SDS011;58263;48.146;11.440;2023-04-09T07:01:13;12.77;;;8.00;;
70683;SDS011;58263;48.146;11.440;2023-04-09T07:03:41;12.38;;;7.43;;
70683;SDS011;58263;48.146;11.440;2023-04-09T07:06:06;12.13;;;7.87;;
70683;SDS011;58263;48.146;11.440;2023-04-09T07:08:31;12.13;;;7.60;;
70683;SDS011;58263;48.146;11.440;2023-04-09T07:10:57;13.77;;;7.97;;
70683;SDS011;58263;48.146;11.440;2023-04-09T07:13:22;12.20;;;7.87;;
70683;SDS011;58263;48.146;11.440;2023-04-09T07:15:47;12.00;;;7.50;;
70683;SDS011;58263;48.146;11.440;2023-04-09T07:18:12;11.70;;;7.33;;
70683;SDS011;58263;48.146;11.440;2023-04-09T07:20:38;11.50;;;6.97;;
70683;SDS011;58263;48.146;11.440;2023-04-09T07:23:03;11.83;;;7.57;;
70683;SDS011;58263;48.146;11.440;2023-04-09T07:25:29;10.93;;;7.10;;
70683;SDS011;58263;48.146;11.440;2023-04-09T07:27:54;9.95;;;6.10;;
70683;SDS011;58263;48.146;11.440;2023-04-09T07:30:20;10.07;;;6.45;;
70683;SDS011;58263;48.146;11.440;2023-04-09T07:32:45;9.33;;;6.90;;
70683;SDS011;58263;48.146;11.440;2023-04-09T07:35:11;11.45;;;6.85;;
70683;SDS011;58263;48.146;11.440;2023-04-09T07:37:36;9.80;;;6.30;;
70683;SDS011;58263;48.146;11.440;2023-04-09T07:40:02;9.20;;;6.00;;
70683;SDS011;58263;48.146;11.440;2023-04-09T07:42:30;9.88;;;6.15;;
70683;SDS011;58263;48.146;11.440;2023-04-09T07:44:56;10.57;;;6.83;;
70683;SDS011;58263;48.146;11.440;2023-04-09T07:47:22;9.43;;;5.82;;
70683;SDS011;58263;48.146;11.440;2023-04-09T07:49:48;10.48;;;6.10;;
70683;SDS011;58263;48.146;11.440;2023-04-09T07:52:13;10.23;;;5.93;;
70683;SDS011;58263;48.146;11.440;2023-04-09T07:54:39;8.50;;;5.88;;
70683;SDS011;58263;48.146;11.440;2023-04-09T07:57:04;8.73;;;6.20;;
70683;SDS011;58263;48.146;11.440;2023-04-09T07:59:30;9.15;;;7.13;;
70683;SDS011;58263;48.146;11.440;2023-04-09T08:01:56;9.95;;;6.70;;
70683;SDS011;58263;48.146;11.440;2023-04-09T08:04:22;8.57;;;5.97;;
70683;SDS011;58263;48.146;11.440;2023-04-09T08:06:47;8.53;;;5.90;;
70683;SDS011;58263;48.146;11.440;2023-04-09T08:09:16;10.00;;;6.35;;
70683;SDS011;58263;48.146;11.440;2023-04-09T08:11:41;9.50;;;6.20;;
70683;SDS011;58263;48.146;11.440;2023-04-09T08:14:07;9.63;;;6.30;;
70683;SDS011;58263;48.146;11.440;2023-04-09T08:16:36;9.32;;;5.43;;
70683;SDS011;58263;48.146;11.440;2023-04-09T08:19:02;7.47;;;5.20;;
70683;SDS011;58263;48.146;11.440;2023-04-09T08:21:27;7.23;;;5.40;;
70683;SDS011;58263;48.146;11.440;2023-04-09T08:23:53;9.98;;;6.40;;
70683;SDS011;58263;48.146;11.440;2023-04-09T08:26:23;7.93;;;6.15;;
70683;SDS011;58263;48.146;11.440;2023-04-09T08:28:48;10.40;;;6.20;;
70683;SDS011;58263;48.146;11.440;2023-04-09T08:31:13;9.25;;;6.32;;
70683;SDS011;58263;48.146;11.440;2023-04-09T08:33:39;9.40;;;5.65;;
70683;SDS011;58263;48.146;11.440;2023-04-09T08:36:07;7.47;;;5.25;;
70683;SDS011;58263;48.146;11.440;2023-04-09T08:38:33;9.77;;;5.85;;
70683;SDS011;58263;48.146;11.440;2023-04-09T08:40:58;7.33;;;6.00;;
70683;SDS011;58263;48.146;11.440;2023-04-09T08:43:23;8.03;;;5.50;;
70683;SDS011;58263;48.146;11.440;2023-04-09T08:45:51;8.07;;;6.22;;
70683;SDS011;58263;48.146;11.440;2023-04-09T08:48:17;8.73;;;6.25;;
70683;SDS011;58263;48.146;11.440;2023-04-09T08:50:44;9.38;;;6.55;;
70683;SDS011;58263;48.146;11.440;2023-04-09T08:53:10;7.43;;;5.68;;
70683;SDS011;58263;48.146;11.440;2023-04-09T08:55:36;8.85;;;6.25;;
70683;SDS011;58263;48.146;11.440;2023-04-09T08:58:05;8.75;;;6.38;;
70683;SDS011;58263;48.146;11.440;2023-04-09T09:00:34;8.25;;;6.88;;
70683;SDS011;58263;48.146;11.440;2023-04-09T09:03:04;9.27;;;5.68;;
70683;SDS011;58263;48.146;11.440;2023-04-09T09:05:44;10.18;;;6.10;;
70683;SDS011;58263;48.146;11.440;2023-04-09T09:08:11;7.65;;;6.32;;
70683;SDS011;58263;48.146;11.440;2023-04-09T09:10:38;8.57;;;6.30;;
70683;SDS011;58263;48.146;11.440;2023-04-09T09:13:22;9.30;;;6.50;;
70683;SDS011;58263;48.146;11.440;2023-04-09T09:15:50;8.43;;;6.43;;
70683;SDS011;58263;48.146;11.440;2023-04-09T09:18:19;9.98;;;6.00;;
70683;SDS011;58263;48.146;11.440;2023-04-09T09:20:45;8.77;;;6.05;;
70683;SDS011;58263;48.146;11.440;2023-04-09T09:23:11;9.35;;;6.32;;
70683;SDS011;58263;48.146;11.440;2023-04-09T09:25:36;9.15;;;6.53;;
70683;SDS011;58263;48.146;11.440;2023-04-09T09:28:14;9.10;;;6.05;;
70683;SDS011;58263;48.146;11.440;2023-04-09T09:30:40;8.35;;;6.53;;
70683;SDS011;58263;48.146;11.440;2023-04-09T09:35:45;9.88;;;7.03;;
70683;SDS011;58263;48.146;11.440;2023-04-09T09:38:21;9.77;;;7.10;;
70683;SDS011;58263;48.146;11.440;2023-04-09T09:40:47;8.75;;;6.78;;
70683;SDS011;58263;48.146;11.440;2023-04-09T09:43:14;8.98;;;6.57;;
70683;SDS011;58263;48.146;11.440;2023-04-09T09:45:39;10.18;;;6.90;;
70683;SDS011;58263;48.146;11.440;2023-04-09T09:48:06;9.95;;;7.32;;
70683;SDS011;58263;48.146;11.440;2023-04-09T09:50:33;11.77;;;6.82;;
70683;SDS011;58263;48.146;11.440;2023-04-09T09:53:03;10.65;;;6.47;;
70683;SDS011;58263;48.146;11.440;2023-04-09T09:55:30;10.27;;;6.78;;
70683;SDS011;58263;48.146;11.440;2023-04-09T09:57:57;9.07;;;7.00;;
70683;SDS011;58263;48.146;11.440;2023-04-09T10:00:26;9.98;;;7.07;;
70683;SDS011;58263;48.146;11.440;2023-04-09T10:02:56;11.43;;;8.65;;
70683;SDS011;58263;48.146;11.440;2023-04-09T10:05:27;11.85;;;7.75;;
70683;SDS011;58263;48.146;11.440;2023-04-09T10:07:54;10.32;;;7.40;;
70683;SDS011;58263;48.146;11.440;2023-04-09T10:10:22;10.65;;;7.63;;
70683;SDS011;58263;48.146;11.440;2023-04-09T10:12:49;11.13;;;7.45;;
70683;SDS011;58263;48.146;11.440;2023-04-09T10:15:16;10.60;;;7.97;;
70683;SDS011;58263;48.146;11.440;2023-04-09T10:17:44;9.98;;;7.18;;
70683;SDS011;58263;48.146;11.440;2023-04-09T10:20:11;11.55;;;8.35;;
70683;SDS011;58263;48.146;11.440;2023-04-09T10:22:41;11.38;;;7.85;;
70683;SDS011;58263;48.146;11.440;2023-04-09T10:25:09;11.38;;;8.27;;
70683;SDS011;58263;48.146;11.440;2023-04-09T10:27:34;10.63;;;7.00;;
70683;SDS011;58263;48.146;11.440;2023-04-09T10:30:00;10.85;;;8.15;;
70683;SDS011;58263;48.146;11.440;2023-04-09T10:32:26;10.07;;;7.50;;
70683;SDS011;58263;48.146;11.440;2023-04-09T10:34:55;10.15;;;7.38;;
70683;SDS011;58263;48.146;11.440;2023-04-09T10:37:22;9.10;;;7.20;;
70683;SDS011;58263;48.146;11.440;2023-04-09T10:39:49;10.35;;;7.43;;
70683;SDS011;58263;48.146;11.440;2023-04-09T10:42:19;10.57;;;7.10;;
70683;SDS011;58263;48.146;11.440;2023-04-09T10:45:07;8.90;;;7.00;;
70683;SDS011;58263;48.146;11.440;2023-04-09T10:47:35;10.65;;;8.00;;
70683;SDS011;58263;48.146;11.440;2023-04-09T10:52:52;9.82;;;7.65;;
70683;SDS011;58263;48.146;11.440;2023-04-09T10:58:14;9.43;;;7.05;;
70683;SDS011;58263;48.146;11.440;2023-04-09T11:00:41;8.98;;;7.65;;
70683;SDS011;58263;48.146;11.440;2023-04-09T11:05:33;9.65;;;7.20;;
70683;SDS011;58263;48.146;11.440;2023-04-09T11:08:03;8.55;;;6.63;;
70683;SDS011;58263;48.146;11.440;2023-04-09T11:10:33;11.02;;;7.43;;
70683;SDS011;58263;48.146;11.440;2023-04-09T11:12:58;9.38;;;7.03;;
70683;SDS011;58263;48.146;11.440;2023-04-09T11:15:24;9.73;;;7.32;;
70683;SDS011;58263;48.146;11.440;2023-04-09T11:17:49;9.13;;;6.53;;
70683;SDS011;58263;48.146;11.440;2023-04-09T11:20:16;8.27;;;6.60;;
70683;SDS011;58263;48.146;11.440;2023-04-09T11:22:44;8.52;;;6.22;;
70683;SDS011;58263;48.146;11.440;2023-04-09T11:25:09;10.77;;;7.78;;
70683;SDS011;58263;48.146;11.440;2023-04-09T11:27:37;8.63;;;6.80;;
70683;SDS011;58263;48.146;11.440;2023-04-09T11:30:03;9.30;;;7.03;;
70683;SDS011;58263;48.146;11.440;2023-04-09T11:32:30;8.05;;;6.53;;
70683;SDS011;58263;48.146;11.440;2023-04-09T11:34:55;8.32;;;7.22;;
70683;SDS011;58263;48.146;11.440;2023-04-09T11:37:22;8.90;;;7.15;;
70683;SDS011;58263;48.146;11.440;2023-04-09T11:39:47;9.13;;;7.53;;
70683;SDS011;58263;48.146;11.440;2023-04-09T11:44:41;9.93;;;7.28;;
70683;SDS011;58263;48.146;11.440;2023-04-09T11:47:09;9.32;;;7.05;;
70683;SDS011;58263;48.146;11.440;2023-04-09T11:49:35;9.70;;;7.57;;
70683;SDS011;58263;48.146;11.440;2023-04-09T11:52:00;9.10;;;6.88;;
70683;SDS011;58263;48.146;11.440;2023-04-09T11:54:31;11.23;;;7.70;;
70683;SDS011;58263;48.146;11.440;2023-04-09T11:56:58;10.40;;;8.82;;
70683;SDS011;58263;48.146;11.440;2023-04-09T11:59:23;9.68;;;8.35;;
70683;SDS011;58263;48.146;11.440;2023-04-09T12:01:49;10.05;;;7.20;;
70683;SDS011;58263;48.146;11.440;2023-04-09T12:04:22;10.63;;;7.90;;
70683;SDS011;58263;48.146;11.440;2023-04-09T12:06:47;9.05;;;6.93;;
70683;SDS011;58263;48.146;11.440;2023-04-09T12:09:13;10.63;;;7.57;;
70683;SDS011;58263;48.146;11.440;2023-04-09T12:11:42;12.07;;;8.15;;
70683;SDS011;58263;48.146;11.440;2023-04-09T12:14:15;10.25;;;7.82;;
70683;SDS011;58263;48.146;11.440;2023-04-09T12:16:42;10.48;;;8.07;;
70683;SDS011;58263;48.146;11.440;2023-04-09T12:19:11;10.98;;;8.25;;
70683;SDS011;58263;48.146;11.440;2023-04-09T12:21:47;10.32;;;8.10;;
70683;SDS011;58263;48.146;11.440;2023-04-09T12:24:13;10.73;;;8.23;;
70683;SDS011;58263;48.146;11.440;2023-04-09T12:26:40;13.07;;;8.80;;
70683;SDS011;58263;48.146;11.440;2023-04-09T12:29:05;13.07;;;8.97;;
70683;SDS011;58263;48.146;11.440;2023-04-09T12:31:30;13.53;;;8.97;;
70683;SDS011;58263;48.146;11.440;2023-04-09T12:33:55;11.93;;;8.17;;
70683;SDS011;58263;48.146;11.440;2023-04-09T12:36:21;11.53;;;7.87;;
70683;SDS011;58263;48.146;11.440;2023-04-09T12:38:47;12.05;;;8.50;;
70683;SDS011;58263;48.146;11.440;2023-04-09T12:41:13;12.40;;;9.02;;
70683;SDS011;58263;48.146;11.440;2023-04-09T12:43:38;10.57;;;7.53;;
70683;SDS011;58263;48.146;11.440;2023-04-09T12:46:04;12.00;;;7.88;;
70683;SDS011;58263;48.146;11.440;2023-04-09T12:48:29;12.07;;;8.32;;
70683;SDS011;58263;48.146;11.440;2023-04-09T12:50:55;10.50;;;8.10;;
70683;SDS011;58263;48.146;11.440;2023-04-09T12:53:20;10.33;;;7.90;;
70683;SDS011;58263;48.146;11.440;2023-04-09T12:55:45;9.80;;;8.53;;
70683;SDS011;58263;48.146;11.440;2023-04-09T12:58:11;10.70;;;7.77;;
70683;SDS011;58263;48.146;11.440;2023-04-09T13:00:36;11.67;;;8.77;;
70683;SDS011;58263;48.146;11.440;2023-04-09T13:03:01;10.00;;;8.02;;
70683;SDS011;58263;48.146;11.440;2023-04-09T13:05:27;8.63;;;7.10;;
70683;SDS011;58263;48.146;11.440;2023-04-09T13:07:52;10.68;;;8.25;;
70683;SDS011;58263;48.146;11.440;2023-04-09T13:10:18;9.63;;;7.40;;
70683;SDS011;58263;48.146;11.440;2023-04-09T13:12:43;9.80;;;7.77;;
70683;SDS011;58263;48.146;11.440;2023-04-09T13:15:08;8.48;;;7.20;;
70683;SDS011;58263;48.146;11.440;2023-04-09T13:17:35;9.10;;;6.97;;
70683;SDS011;58263;48.146;11.440;2023-04-09T13:20:00;9.63;;;7.00;;
70683;SDS011;58263;48.146;11.440;2023-04-09T13:22:27;8.40;;;6.97;;
70683;SDS011;58263;48.146;11.440;2023-04-09T13:24:52;12.20;;;8.82;;
70683;SDS011;58263;48.146;11.440;2023-04-09T13:27:18;10.30;;;7.83;;
70683;SDS011;58263;48.146;11.440;2023-04-09T13:29:43;8.88;;;7.28;;
70683;SDS011;58263;48.146;11.440;2023-04-09T13:32:09;8.90;;;6.90;;
70683;SDS011;58263;48.146;11.440;2023-04-09T13:34:34;10.38;;;7.63;;
70683;SDS011;58263;48.146;11.440;2023-04-09T13:37:01;10.65;;;7.65;;
70683;SDS011;58263;48.146;11.440;2023-04-09T13:39:26;11.43;;;8.52;;
70683;SDS011;58263;48.146;11.440;2023-04-09T13:41:52;13.20;;;8.32;;
70683;SDS011;58263;48.146;11.440;2023-04-09T13:44:19;11.32;;;8.02;;
70683;SDS011;58263;48.146;11.440;2023-04-09T13:46:44;11.68;;;8.40;;
70683;SDS011;58263;48.146;11.440;2023-04-09T13:49:10;11.30;;;8.93;;
70683;SDS011;58263;48.146;11.440;2023-04-09T13:51:35;13.27;;;8.93;;
70683;SDS011;58263;48.146;11.440;2023-04-09T13:54:00;11.90;;;8.05;;
70683;SDS011;58263;48.146;11.440;2023-04-09T13:56:26;12.50;;;8.70;;
70683;SDS011;58263;48.146;11.440;2023-04-09T13:58:52;12.15;;;8.20;;
70683;SDS011;58263;48.146;11.440;2023-04-09T14:01:17;11.27;;;7.82;;
70683;SDS011;58263;48.146;11.440;2023-04-09T14:03:43;10.48;;;8.07;;
70683;SDS011;58263;48.146;11.440;2023-04-09T14:06:08;10.32;;;7.43;;
70683;SDS011;58263;48.146;11.440;2023-04-09T14:08:34;9.82;;;6.88;;
70683;SDS011;58263;48.146;11.440;2023-04-09T14:11:00;9.65;;;7.18;;
70683;SDS011;58263;48.146;11.440;2023-04-09T14:13:26;12.02;;;8.30;;
70683;SDS011;58263;48.146;11.440;2023-04-09T14:15:51;11.00;;;7.73;;
70683;SDS011;58263;48.146;11.440;2023-04-09T14:18:16;10.10;;;7.43;;
70683;SDS011;58263;48.146;11.440;2023-04-09T14:20:42;9.63;;;7.00;;
70683;SDS011;58263;48.146;11.440;2023-04-09T14:23:07;11.90;;;7.37;;
70683;SDS011;58263;48.146;11.440;2023-04-09T14:25:32;7.60;;;6.13;;
70683;SDS011;58263;48.146;11.440;2023-04-09T14:27:58;7.73;;;5.73;;
70683;SDS011;58263;48.146;11.440;2023-04-09T14:30:23;8.33;;;6.50;;
70683;SDS011;58263;48.146;11.440;2023-04-09T14:32:49;9.32;;;6.20;;
70683;SDS011;58263;48.146;11.440;2023-04-09T14:35:14;9.70;;;6.47;;
70683;SDS011;58263;48.146;11.440;2023-04-09T14:37:40;9.50;;;6.65;;
70683;SDS011;58263;48.146;11.440;2023-04-09T14:40:06;9.05;;;6.72;;
70683;SDS011;58263;48.146;11.440;2023-04-09T14:42:32;9.45;;;6.60;;
70683;SDS011;58263;48.146;11.440;2023-04-09T14:44:57;12.40;;;8.48;;